^^
Your Local Weather - Clay, NY Station Historical Data
Daily Summary for January 27, 2018 Units:  Both    English   Metric
« Previous Day
Next Day »
Daily Weekly Monthly Yearly Custom
  High: Low: Average:
Temperature: 50.3 °F /  10.2 °C 22.9 °F /  -5.1 °C 38.8 °F /  3.8 °C
Dew Point: 41.2 °F /  5.1 °C 16.8 °F /  -8.4 °C 28.8 °F /  -1.8 °C
Humidity: 90% 43% 69%
Wind Speed: 7.0mph /  11.3km/h - 3mph /  4.8km/h
Wind Gust: 11.0mph /  17.7km/h - -
Wind- - SSE
Pressure: 30.34 in /  1027.3 hPa 30.05 in /  1017.5 hPa -
Precipitation: 0.24 in /  6.1 mm    
Historical Graphs
 
 
Tabular Data for January 27, 2018
Time Temperature Dew Point Pressure Wind Wind Speed Wind Gust Humidity Rainfall Rate (Hourly) solar
00:02 24.6 °F /  -4.1 °C 17.5 °F /  -8.1 °C 30.34in /  1027.3hPa East 2.0mph /  3.2km/h 2.0mph /  3.2km/h 74% 0.00in /  0mm 0 W/m2
00:08 24.6 °F /  -4.1 °C 17.5 °F /  -8.1 °C 30.34in /  1027.3hPa East 2.0mph /  3.2km/h 2.0mph /  3.2km/h 74% 0.00in /  0mm 0 W/m2
00:13 24.7 °F /  -4.1 °C 17.6 °F /  -8 °C 30.34in /  1027.3hPa East 2.0mph /  3.2km/h 3.0mph /  4.8km/h 74% 0.00in /  0mm 0 W/m2
00:19 24.5 °F /  -4.2 °C 17.4 °F /  -8.1 °C 30.33in /  1027hPa East 2.0mph /  3.2km/h 2.0mph /  3.2km/h 74% 0.00in /  0mm 0 W/m2
00:26 24.5 °F /  -4.2 °C 17.7 °F /  -7.9 °C 30.33in /  1027hPa East 2.0mph /  3.2km/h 5.0mph /  8km/h 75% 0.00in /  0mm 0 W/m2
00:32 24.8 °F /  -4 °C 18.0 °F /  -7.8 °C 30.33in /  1027hPa ENE 3.0mph /  4.8km/h 5.0mph /  8km/h 75% 0.00in /  0mm 0 W/m2
00:38 24.6 °F /  -4.1 °C 17.8 °F /  -7.9 °C 30.32in /  1026.6hPa ENE 3.0mph /  4.8km/h 5.0mph /  8km/h 75% 0.00in /  0mm 0 W/m2
00:43 24.6 °F /  -4.1 °C 17.8 °F /  -7.9 °C 30.32in /  1026.6hPa ENE 3.0mph /  4.8km/h 7.0mph /  11.3km/h 75% 0.00in /  0mm 0 W/m2
00:49 24.9 °F /  -3.9 °C 17.8 °F /  -7.9 °C 30.32in /  1026.6hPa ENE 3.0mph /  4.8km/h 4.0mph /  6.4km/h 74% 0.00in /  0mm 0 W/m2
00:55 24.7 °F /  -4.1 °C 17.9 °F /  -7.8 °C 30.31in /  1026.3hPa East 3.0mph /  4.8km/h 4.0mph /  6.4km/h 75% 0.00in /  0mm 0 W/m2
01:02 24.3 °F /  -4.3 °C 17.5 °F /  -8.1 °C 30.31in /  1026.3hPa East 2.0mph /  3.2km/h 2.0mph /  3.2km/h 75% 0.00in /  0mm 0 W/m2
01:08 23.7 °F /  -4.6 °C 17.2 °F /  -8.2 °C 30.31in /  1026.3hPa ENE 2.0mph /  3.2km/h 3.0mph /  4.8km/h 76% 0.00in /  0mm 0 W/m2
01:13 23.4 °F /  -4.8 °C 16.9 °F /  -8.4 °C 30.31in /  1026.3hPa ENE 3.0mph /  4.8km/h 4.0mph /  6.4km/h 76% 0.00in /  0mm 0 W/m2
01:20 22.9 °F /  -5.1 °C 16.8 °F /  -8.4 °C 30.31in /  1026.3hPa ENE 3.0mph /  4.8km/h 4.0mph /  6.4km/h 77% 0.00in /  0mm 0 W/m2
01:25 23.3 °F /  -4.8 °C 17.5 °F /  -8.1 °C 30.30in /  1026hPa ENE 3.0mph /  4.8km/h 5.0mph /  8km/h 78% 0.00in /  0mm 0 W/m2
01:32 23.9 °F /  -4.5 °C 18.0 °F /  -7.8 °C 30.30in /  1026hPa NE 3.0mph /  4.8km/h 3.0mph /  4.8km/h 78% 0.00in /  0mm 0 W/m2
01:38 24.1 °F /  -4.4 °C 17.9 °F /  -7.8 °C 30.30in /  1026hPa ENE 3.0mph /  4.8km/h 4.0mph /  6.4km/h 77% 0.00in /  0mm 0 W/m2
01:43 23.9 °F /  -4.5 °C 17.7 °F /  -7.9 °C 30.30in /  1026hPa ENE 3.0mph /  4.8km/h 3.0mph /  4.8km/h 77% 0.00in /  0mm 0 W/m2
01:49 24.0 °F /  -4.4 °C 18.1 °F /  -7.7 °C 30.28in /  1025.3hPa ESE 3.0mph /  4.8km/h 3.0mph /  4.8km/h 78% 0.00in /  0mm 0 W/m2
01:56 25.1 °F /  -3.8 °C 19.2 °F /  -7.1 °C 30.30in /  1026hPa East 3.0mph /  4.8km/h 3.0mph /  4.8km/h 78% 0.00in /  0mm 0 W/m2
02:02 24.9 °F /  -3.9 °C 18.4 °F /  -7.6 °C 30.30in /  1026hPa East 2.0mph /  3.2km/h 3.0mph /  4.8km/h 76% 0.00in /  0mm 0 W/m2
02:08 24.2 °F /  -4.3 °C 18.0 °F /  -7.8 °C 30.30in /  1026hPa East 2.0mph /  3.2km/h 3.0mph /  4.8km/h 77% 0.00in /  0mm 0 W/m2
02:14 23.9 °F /  -4.5 °C 18.0 °F /  -7.8 °C 30.30in /  1026hPa East 2.0mph /  3.2km/h 3.0mph /  4.8km/h 78% 0.00in /  0mm 0 W/m2
02:20 23.6 °F /  -4.7 °C 18.0 °F /  -7.8 °C 30.30in /  1026hPa East 3.0mph /  4.8km/h 3.0mph /  4.8km/h 79% 0.00in /  0mm 0 W/m2
02:25 24.2 °F /  -4.3 °C 18.9 °F /  -7.3 °C 30.30in /  1026hPa East 2.0mph /  3.2km/h 4.0mph /  6.4km/h 80% 0.00in /  0mm 0 W/m2
02:32 24.4 °F /  -4.2 °C 18.8 °F /  -7.3 °C 30.29in /  1025.6hPa East 3.0mph /  4.8km/h 3.0mph /  4.8km/h 79% 0.00in /  0mm 0 W/m2
02:38 24.6 °F /  -4.1 °C 19.0 °F /  -7.2 °C 30.28in /  1025.3hPa East 3.0mph /  4.8km/h 3.0mph /  4.8km/h 79% 0.00in /  0mm 0 W/m2
02:43 25.0 °F /  -3.9 °C 19.1 °F /  -7.2 °C 30.28in /  1025.3hPa East 3.0mph /  4.8km/h 3.0mph /  4.8km/h 78% 0.00in /  0mm 0 W/m2
02:49 25.4 °F /  -3.7 °C 19.2 °F /  -7.1 °C 30.28in /  1025.3hPa East 3.0mph /  4.8km/h 3.0mph /  4.8km/h 77% 0.00in /  0mm 0 W/m2
02:56 25.0 °F /  -3.9 °C 18.8 °F /  -7.3 °C 30.27in /  1024.9hPa East 2.0mph /  3.2km/h 3.0mph /  4.8km/h 77% 0.00in /  0mm 0 W/m2
03:02 25.3 °F /  -3.7 °C 19.1 °F /  -7.2 °C 30.28in /  1025.3hPa ENE 2.0mph /  3.2km/h 2.0mph /  3.2km/h 77% 0.00in /  0mm 0 W/m2
03:08 24.9 °F /  -3.9 °C 18.7 °F /  -7.4 °C 30.28in /  1025.3hPa East 2.0mph /  3.2km/h 3.0mph /  4.8km/h 77% 0.00in /  0mm 0 W/m2
03:14 24.0 °F /  -4.4 °C 18.1 °F /  -7.7 °C 30.28in /  1025.3hPa NE 2.0mph /  3.2km/h 5.0mph /  8km/h 78% 0.00in /  0mm 0 W/m2
03:19 23.9 °F /  -4.5 °C 18.3 °F /  -7.6 °C 30.28in /  1025.3hPa East 2.0mph /  3.2km/h 2.0mph /  3.2km/h 79% 0.00in /  0mm 0 W/m2
03:25 23.7 °F /  -4.6 °C 18.4 °F /  -7.6 °C 30.27in /  1024.9hPa East 3.0mph /  4.8km/h 3.0mph /  4.8km/h 80% 0.00in /  0mm 0 W/m2
03:32 23.7 °F /  -4.6 °C 18.4 °F /  -7.6 °C 30.27in /  1024.9hPa ENE 3.0mph /  4.8km/h 5.0mph /  8km/h 80% 0.00in /  0mm 0 W/m2
03:38 24.2 °F /  -4.3 °C 18.9 °F /  -7.3 °C 30.27in /  1024.9hPa ENE 3.0mph /  4.8km/h 5.0mph /  8km/h 80% 0.00in /  0mm 0 W/m2
03:43 24.6 °F /  -4.1 °C 19.3 °F /  -7.1 °C 30.26in /  1024.6hPa East 2.0mph /  3.2km/h 4.0mph /  6.4km/h 80% 0.00in /  0mm 0 W/m2
03:52 24.9 °F /  -3.9 °C 19.0 °F /  -7.2 °C 30.27in /  1024.9hPa ESE 2.0mph /  3.2km/h 2.0mph /  3.2km/h 78% 0.00in /  0mm 0 W/m2
03:58 24.2 °F /  -4.3 °C 18.3 °F /  -7.6 °C 30.27in /  1024.9hPa ENE 1.0mph /  1.6km/h 2.0mph /  3.2km/h 78% 0.00in /  0mm 0 W/m2
04:04 23.9 °F /  -4.5 °C 18.3 °F /  -7.6 °C 30.26in /  1024.6hPa ENE 1.0mph /  1.6km/h 1.0mph /  1.6km/h 79% 0.00in /  0mm 0 W/m2
04:09 24.0 °F /  -4.4 °C 18.7 °F /  -7.4 °C 30.26in /  1024.6hPa ENE 1.0mph /  1.6km/h 2.0mph /  3.2km/h 80% 0.00in /  0mm 0 W/m2
04:15 23.8 °F /  -4.6 °C 18.5 °F /  -7.5 °C 30.26in /  1024.6hPa ENE 2.0mph /  3.2km/h 2.0mph /  3.2km/h 80% 0.00in /  0mm 0 W/m2
04:22 24.4 °F /  -4.2 °C 19.4 °F /  -7 °C 30.26in /  1024.6hPa ENE 1.0mph /  1.6km/h 2.0mph /  3.2km/h 81% 0.00in /  0mm 0 W/m2
04:28 24.5 °F /  -4.2 °C 19.2 °F /  -7.1 °C 30.25in /  1024.3hPa ENE 2.0mph /  3.2km/h 2.0mph /  3.2km/h 80% 0.00in /  0mm 0 W/m2
04:34 24.7 °F /  -4.1 °C 19.7 °F /  -6.8 °C 30.25in /  1024.3hPa ENE 1.0mph /  1.6km/h 2.0mph /  3.2km/h 81% 0.00in /  0mm 0 W/m2
04:39 25.1 °F /  -3.8 °C 19.8 °F /  -6.8 °C 30.25in /  1024.3hPa East 2.0mph /  3.2km/h 2.0mph /  3.2km/h 80% 0.00in /  0mm 0 W/m2
04:46 25.6 °F /  -3.6 °C 20.3 °F /  -6.5 °C 30.25in /  1024.3hPa ENE 2.0mph /  3.2km/h 5.0mph /  8km/h 80% 0.00in /  0mm 0 W/m2
04:52 26.4 °F /  -3.1 °C 20.8 °F /  -6.2 °C 30.25in /  1024.3hPa ENE 2.0mph /  3.2km/h 3.0mph /  4.8km/h 79% 0.00in /  0mm 0 W/m2
04:58 26.0 °F /  -3.3 °C 20.4 °F /  -6.4 °C 30.25in /  1024.3hPa ENE 2.0mph /  3.2km/h 3.0mph /  4.8km/h 79% 0.00in /  0mm 0 W/m2
05:03 25.7 °F /  -3.5 °C 20.1 °F /  -6.6 °C 30.25in /  1024.3hPa ENE 3.0mph /  4.8km/h 3.0mph /  4.8km/h 79% 0.00in /  0mm 0 W/m2
05:09 26.1 °F /  -3.3 °C 20.8 °F /  -6.2 °C 30.24in /  1023.9hPa ENE 3.0mph /  4.8km/h 4.0mph /  6.4km/h 80% 0.00in /  0mm 0 W/m2
05:16 26.2 °F /  -3.2 °C 20.6 °F /  -6.3 °C 30.23in /  1023.6hPa East 3.0mph /  4.8km/h 4.0mph /  6.4km/h 79% 0.00in /  0mm 0 W/m2
05:22 26.3 °F /  -3.2 °C 20.7 °F /  -6.3 °C 30.23in /  1023.6hPa East 3.0mph /  4.8km/h 3.0mph /  4.8km/h 79% 0.00in /  0mm 0 W/m2
05:28 26.7 °F /  -2.9 °C 20.8 °F /  -6.2 °C 30.23in /  1023.6hPa ENE 2.0mph /  3.2km/h 3.0mph /  4.8km/h 78% 0.00in /  0mm 0 W/m2
05:33 27.2 °F /  -2.7 °C 21.2 °F /  -6 °C 30.23in /  1023.6hPa East 3.0mph /  4.8km/h 7.0mph /  11.3km/h 78% 0.00in /  0mm 0 W/m2
05:39 27.3 °F /  -2.6 °C 21.0 °F /  -6.1 °C 30.23in /  1023.6hPa ENE 3.0mph /  4.8km/h 4.0mph /  6.4km/h 77% 0.00in /  0mm 0 W/m2
05:45 27.4 °F /  -2.6 °C 21.1 °F /  -6.1 °C 30.22in /  1023.2hPa NE 2.0mph /  3.2km/h 4.0mph /  6.4km/h 77% 0.00in /  0mm 0 W/m2
05:52 27.1 °F /  -2.7 °C 20.5 °F /  -6.4 °C 30.23in /  1023.6hPa ENE 3.0mph /  4.8km/h 4.0mph /  6.4km/h 76% 0.00in /  0mm 0 W/m2
05:58 27.0 °F /  -2.8 °C 20.7 °F /  -6.3 °C 30.22in /  1023.2hPa ENE 3.0mph /  4.8km/h 4.0mph /  6.4km/h 77% 0.00in /  0mm 0 W/m2
06:04 26.7 °F /  -2.9 °C 20.8 °F /  -6.2 °C 30.22in /  1023.2hPa ENE 2.0mph /  3.2km/h 3.0mph /  4.8km/h 78% 0.00in /  0mm 0 W/m2
06:09 26.5 °F /  -3.1 °C 20.6 °F /  -6.3 °C 30.22in /  1023.2hPa ENE 2.0mph /  3.2km/h 2.0mph /  3.2km/h 78% 0.00in /  0mm 0 W/m2
06:16 26.9 °F /  -2.8 °C 21.3 °F /  -5.9 °C 30.22in /  1023.2hPa ENE 2.0mph /  3.2km/h 4.0mph /  6.4km/h 79% 0.00in /  0mm 0 W/m2
06:22 26.7 °F /  -2.9 °C 20.8 °F /  -6.2 °C 30.22in /  1023.2hPa ENE 2.0mph /  3.2km/h 2.0mph /  3.2km/h 78% 0.00in /  0mm 0 W/m2
06:28 26.8 °F /  -2.9 °C 21.2 °F /  -6 °C 30.22in /  1023.2hPa East 2.0mph /  3.2km/h 3.0mph /  4.8km/h 79% 0.00in /  0mm 0 W/m2
06:33 27.1 °F /  -2.7 °C 21.2 °F /  -6 °C 30.22in /  1023.2hPa East 2.0mph /  3.2km/h 3.0mph /  4.8km/h 78% 0.00in /  0mm 0 W/m2
06:39 26.6 °F /  -3 °C 21.0 °F /  -6.1 °C 30.22in /  1023.2hPa East 3.0mph /  4.8km/h 3.0mph /  4.8km/h 79% 0.00in /  0mm 0 W/m2
06:45 26.4 °F /  -3.1 °C 20.8 °F /  -6.2 °C 30.22in /  1023.2hPa East 2.0mph /  3.2km/h 3.0mph /  4.8km/h 79% 0.00in /  0mm 0 W/m2
06:52 26.7 °F /  -2.9 °C 21.4 °F /  -5.9 °C 30.21in /  1022.9hPa East 2.0mph /  3.2km/h 3.0mph /  4.8km/h 80% 0.00in /  0mm 0 W/m2
06:58 26.6 °F /  -3 °C 21.0 °F /  -6.1 °C 30.21in /  1022.9hPa ENE 2.0mph /  3.2km/h 3.0mph /  4.8km/h 79% 0.00in /  0mm 0 W/m2
07:04 26.1 °F /  -3.3 °C 20.5 °F /  -6.4 °C 30.21in /  1022.9hPa ENE 2.0mph /  3.2km/h 3.0mph /  4.8km/h 79% 0.00in /  0mm 0 W/m2
07:09 26.0 °F /  -3.3 °C 20.7 °F /  -6.3 °C 30.21in /  1022.9hPa ENE 2.0mph /  3.2km/h 2.0mph /  3.2km/h 80% 0.00in /  0mm 0 W/m2
07:15 26.5 °F /  -3.1 °C 21.5 °F /  -5.8 °C 30.20in /  1022.6hPa ENE 1.0mph /  1.6km/h 3.0mph /  4.8km/h 81% 0.00in /  0mm 0 W/m2
07:22 26.5 °F /  -3.1 °C 21.5 °F /  -5.8 °C 30.20in /  1022.6hPa ENE 1.0mph /  1.6km/h 2.0mph /  3.2km/h 81% 0.00in /  0mm 7 W/m2
07:28 27.4 °F /  -2.6 °C 22.3 °F /  -5.4 °C 30.20in /  1022.6hPa ENE 1.0mph /  1.6km/h 2.0mph /  3.2km/h 81% 0.00in /  0mm 9 W/m2
07:34 28.0 °F /  -2.2 °C 22.3 °F /  -5.4 °C 30.20in /  1022.6hPa ENE 1.0mph /  1.6km/h 1.0mph /  1.6km/h 79% 0.00in /  0mm 12 W/m2
07:39 28.1 °F /  -2.2 °C 22.4 °F /  -5.3 °C 30.20in /  1022.6hPa Calm   1.0mph /  1.6km/h 79% 0.00in /  0mm 16 W/m2
07:45 27.9 °F /  -2.3 °C 21.9 °F /  -5.6 °C 30.20in /  1022.6hPa ENE 1.0mph /  1.6km/h 2.0mph /  3.2km/h 78% 0.00in /  0mm 25 W/m2
07:52 29.0 °F /  -1.7 °C 23.3 °F /  -4.8 °C 30.20in /  1022.6hPa SE 1.0mph /  1.6km/h 3.0mph /  4.8km/h 79% 0.00in /  0mm 30 W/m2
07:58 29.1 °F /  -1.6 °C 22.8 °F /  -5.1 °C 30.20in /  1022.6hPa SE 1.0mph /  1.6km/h 3.0mph /  4.8km/h 77% 0.00in /  0mm 37 W/m2
08:03 31.9 °F /  -0.1 °C 25.8 °F /  -3.4 °C 30.19in /  1022.2hPa SW 1.0mph /  1.6km/h 1.0mph /  1.6km/h 78% 0.00in /  0mm 46 W/m2
08:09 39.1 °F /  3.9 °C 28.7 °F /  -1.8 °C 30.19in /  1022.2hPa SSE 4.0mph /  6.4km/h 5.0mph /  8km/h 66% 0.00in /  0mm 53 W/m2
08:16 41.7 °F /  5.4 °C 26.7 °F /  -2.9 °C 30.19in /  1022.2hPa SW 5.0mph /  8km/h 8.0mph /  12.9km/h 55% 0.00in /  0mm 54 W/m2
08:22 42.3 °F /  5.7 °C 25.9 °F /  -3.4 °C 30.19in /  1022.2hPa SSE 5.0mph /  8km/h 5.0mph /  8km/h 52% 0.00in /  0mm 56 W/m2
08:28 42.4 °F /  5.8 °C 25.5 °F /  -3.6 °C 30.18in /  1021.9hPa SSE 4.0mph /  6.4km/h 7.0mph /  11.3km/h 51% 0.00in /  0mm 62 W/m2
08:33 42.7 °F /  5.9 °C 25.3 °F /  -3.7 °C 30.18in /  1021.9hPa SSW 5.0mph /  8km/h 7.0mph /  11.3km/h 50% 0.00in /  0mm 65 W/m2
08:39 43.1 °F /  6.2 °C 25.7 °F /  -3.5 °C 30.18in /  1021.9hPa South 5.0mph /  8km/h 5.0mph /  8km/h 50% 0.00in /  0mm 65 W/m2
08:45 43.2 °F /  6.2 °C 25.3 °F /  -3.7 °C 30.18in /  1021.9hPa South 5.0mph /  8km/h 5.0mph /  8km/h 49% 0.00in /  0mm 67 W/m2
08:52 43.5 °F /  6.4 °C 25.1 °F /  -3.8 °C 30.18in /  1021.9hPa SW 5.0mph /  8km/h 9.0mph /  14.5km/h 48% 0.00in /  0mm 65 W/m2
08:58 43.9 °F /  6.6 °C 24.9 °F /  -3.9 °C 30.18in /  1021.9hPa South 5.0mph /  8km/h 10.0mph /  16.1km/h 47% 0.00in /  0mm 76 W/m2
09:03 44.0 °F /  6.7 °C 25.0 °F /  -3.9 °C 30.18in /  1021.9hPa SW 5.0mph /  8km/h 6.0mph /  9.7km/h 47% 0.00in /  0mm 88 W/m2
09:09 44.2 °F /  6.8 °C 25.7 °F /  -3.5 °C 30.18in /  1021.9hPa South 4.0mph /  6.4km/h 5.0mph /  8km/h 48% 0.00in /  0mm 114 W/m2
09:15 44.5 °F /  6.9 °C 25.5 °F /  -3.6 °C 30.18in /  1021.9hPa South 4.0mph /  6.4km/h 5.0mph /  8km/h 47% 0.00in /  0mm 135 W/m2
09:22 44.9 °F /  7.2 °C 25.3 °F /  -3.7 °C 30.18in /  1021.9hPa SW 4.0mph /  6.4km/h 6.0mph /  9.7km/h 46% 0.00in /  0mm 116 W/m2
09:28 45.0 °F /  7.2 °C 25.4 °F /  -3.7 °C 30.18in /  1021.9hPa South 4.0mph /  6.4km/h 7.0mph /  11.3km/h 46% 0.00in /  0mm 107 W/m2
09:33 45.1 °F /  7.3 °C 25.5 °F /  -3.6 °C 30.18in /  1021.9hPa SW 4.0mph /  6.4km/h 8.0mph /  12.9km/h 46% 0.00in /  0mm 113 W/m2
09:39 45.3 °F /  7.4 °C 25.7 °F /  -3.5 °C 30.18in /  1021.9hPa SSE 4.0mph /  6.4km/h 5.0mph /  8km/h 46% 0.00in /  0mm 165 W/m2
09:45 45.7 °F /  7.6 °C 26.1 °F /  -3.3 °C 30.18in /  1021.9hPa South 4.0mph /  6.4km/h 6.0mph /  9.7km/h 46% 0.00in /  0mm 213 W/m2
09:52 46.1 °F /  7.8 °C 25.9 °F /  -3.4 °C 30.18in /  1021.9hPa SW 5.0mph /  8km/h 5.0mph /  8km/h 45% 0.00in /  0mm 288 W/m2
09:58 46.7 °F /  8.2 °C 25.9 °F /  -3.4 °C 30.17in /  1021.6hPa South 6.0mph /  9.7km/h 9.0mph /  14.5km/h 44% 0.00in /  0mm 216 W/m2
10:03 46.9 °F /  8.3 °C 26.1 °F /  -3.3 °C 30.17in /  1021.6hPa SSW 7.0mph /  11.3km/h 8.0mph /  12.9km/h 44% 0.00in /  0mm 260 W/m2
10:09 46.9 °F /  8.3 °C 26.1 °F /  -3.3 °C 30.17in /  1021.6hPa SSW 6.0mph /  9.7km/h 7.0mph /  11.3km/h 44% 0.00in /  0mm 204 W/m2
10:15 47.1 °F /  8.4 °C 26.3 °F /  -3.2 °C 30.17in /  1021.6hPa SW 6.0mph /  9.7km/h 8.0mph /  12.9km/h 44% 0.00in /  0mm 265 W/m2
10:22 47.4 °F /  8.6 °C 26.0 °F /  -3.3 °C 30.16in /  1021.2hPa SSW 6.0mph /  9.7km/h 9.0mph /  14.5km/h 43% 0.00in /  0mm 232 W/m2
10:28 47.3 °F /  8.5 °C 26.5 °F /  -3.1 °C 30.17in /  1021.6hPa SW 5.0mph /  8km/h 9.0mph /  14.5km/h 44% 0.00in /  0mm 141 W/m2
10:34 47.2 °F /  8.4 °C 26.4 °F /  -3.1 °C 30.17in /  1021.6hPa SW 5.0mph /  8km/h 8.0mph /  12.9km/h 44% 0.00in /  0mm 107 W/m2
10:39 47.2 °F /  8.4 °C 26.4 °F /  -3.1 °C 30.16in /  1021.2hPa SW 6.0mph /  9.7km/h 6.0mph /  9.7km/h 44% 0.00in /  0mm 114 W/m2
10:45 47.2 °F /  8.4 °C 26.4 °F /  -3.1 °C 30.16in /  1021.2hPa SSE 6.0mph /  9.7km/h 6.0mph /  9.7km/h 44% 0.00in /  0mm 116 W/m2
10:52 47.2 °F /  8.4 °C 26.9 °F /  -2.8 °C 30.15in /  1020.9hPa South 6.0mph /  9.7km/h 7.0mph /  11.3km/h 45% 0.00in /  0mm 100 W/m2
10:58 47.1 °F /  8.4 °C 26.3 °F /  -3.2 °C 30.16in /  1021.2hPa SSW 6.0mph /  9.7km/h 7.0mph /  11.3km/h 44% 0.00in /  0mm 88 W/m2
11:03 47.0 °F /  8.3 °C 26.7 °F /  -2.9 °C 30.15in /  1020.9hPa South 5.0mph /  8km/h 10.0mph /  16.1km/h 45% 0.00in /  0mm 84 W/m2
11:09 46.9 °F /  8.3 °C 26.6 °F /  -3 °C 30.15in /  1020.9hPa South 6.0mph /  9.7km/h 7.0mph /  11.3km/h 45% 0.00in /  0mm 116 W/m2
11:15 47.0 °F /  8.3 °C 26.7 °F /  -2.9 °C 30.14in /  1020.5hPa SSW 6.0mph /  9.7km/h 7.0mph /  11.3km/h 45% 0.00in /  0mm 90 W/m2
11:22 47.0 °F /  8.3 °C 27.3 °F /  -2.6 °C 30.14in /  1020.5hPa SSW 6.0mph /  9.7km/h 6.0mph /  9.7km/h 46% 0.00in /  0mm 100 W/m2
11:28 47.1 °F /  8.4 °C 27.4 °F /  -2.6 °C 30.13in /  1020.2hPa SSW 5.0mph /  8km/h 6.0mph /  9.7km/h 46% 0.00in /  0mm 90 W/m2
11:33 47.2 °F /  8.4 °C 27.5 °F /  -2.5 °C 30.13in /  1020.2hPa SSW 5.0mph /  8km/h 6.0mph /  9.7km/h 46% 0.00in /  0mm 98 W/m2
11:39 47.2 °F /  8.4 °C 27.5 °F /  -2.5 °C 30.13in /  1020.2hPa WSW 5.0mph /  8km/h 8.0mph /  12.9km/h 46% 0.00in /  0mm 76 W/m2
11:42 47.2 °F /  8.4 °C 27.5 °F /  -2.5 °C 30.12in /  1019.9hPa South 5.0mph /  8km/h 8.0mph /  12.9km/h 46% 0.00in /  0mm 65 W/m2
11:48 47.2 °F /  8.4 °C 28.0 °F /  -2.2 °C 30.12in /  1019.9hPa SE 5.0mph /  8km/h 5.0mph /  8km/h 47% 0.00in /  0mm 74 W/m2
11:53 47.1 °F /  8.4 °C 27.9 °F /  -2.3 °C 30.12in /  1019.9hPa SSW 4.0mph /  6.4km/h 7.0mph /  11.3km/h 47% 0.00in /  0mm 69 W/m2
11:59 47.2 °F /  8.4 °C 28.0 °F /  -2.2 °C 30.12in /  1019.9hPa SSW 5.0mph /  8km/h 5.0mph /  8km/h 47% 0.00in /  0mm 93 W/m2
12:05 47.3 °F /  8.5 °C 28.1 °F /  -2.2 °C 30.12in /  1019.9hPa SSW 5.0mph /  8km/h 11.0mph /  17.7km/h 47% 0.00in /  0mm 65 W/m2
12:12 47.4 °F /  8.6 °C 28.2 °F /  -2.1 °C 30.12in /  1019.9hPa SSW 5.0mph /  8km/h 5.0mph /  8km/h 47% 0.00in /  0mm 83 W/m2
12:18 47.5 °F /  8.6 °C 28.3 °F /  -2.1 °C 30.12in /  1019.9hPa SW 4.0mph /  6.4km/h 5.0mph /  8km/h 47% 0.00in /  0mm 65 W/m2
12:23 47.5 °F /  8.6 °C 28.3 °F /  -2.1 °C 30.12in /  1019.9hPa SW 3.0mph /  4.8km/h 5.0mph /  8km/h 47% 0.00in /  0mm 51 W/m2
12:30 47.5 °F /  8.6 °C 28.3 °F /  -2.1 °C 30.11in /  1019.5hPa SSW 3.0mph /  4.8km/h 6.0mph /  9.7km/h 47% 0.00in /  0mm 40 W/m2
12:35 47.4 °F /  8.6 °C 28.7 °F /  -1.8 °C 30.10in /  1019.2hPa South 3.0mph /  4.8km/h 6.0mph /  9.7km/h 48% 0.00in /  0mm 35 W/m2
12:42 47.3 °F /  8.5 °C 29.1 °F /  -1.6 °C 30.09in /  1018.8hPa South 4.0mph /  6.4km/h 5.0mph /  8km/h 49% 0.00in /  0mm 37 W/m2
12:48 47.3 °F /  8.5 °C 29.1 °F /  -1.6 °C 30.09in /  1018.8hPa SSW 3.0mph /  4.8km/h 5.0mph /  8km/h 49% 0.00in /  0mm 30 W/m2
12:53 47.4 °F /  8.6 °C 29.7 °F /  -1.3 °C 30.10in /  1019.2hPa West 3.0mph /  4.8km/h 3.0mph /  4.8km/h 50% 0.00in /  0mm 28 W/m2
12:59 47.5 °F /  8.6 °C 29.8 °F /  -1.2 °C 30.10in /  1019.2hPa SW 3.0mph /  4.8km/h 3.0mph /  4.8km/h 50% 0.00in /  0mm 21 W/m2
13:05 47.5 °F /  8.6 °C 29.8 °F /  -1.2 °C 30.08in /  1018.5hPa SW 3.0mph /  4.8km/h 4.0mph /  6.4km/h 50% 0.00in /  0mm 30 W/m2
13:12 47.6 °F /  8.7 °C 29.9 °F /  -1.2 °C 30.09in /  1018.8hPa South 3.0mph /  4.8km/h 4.0mph /  6.4km/h 50% 0.00in /  0mm 33 W/m2
13:18 47.8 °F /  8.8 °C 29.5 °F /  -1.4 °C 30.08in /  1018.5hPa South 3.0mph /  4.8km/h 4.0mph /  6.4km/h 49% 0.00in /  0mm 32 W/m2
13:23 47.9 °F /  8.8 °C 30.1 °F /  -1.1 °C 30.08in /  1018.5hPa SSW 3.0mph /  4.8km/h 5.0mph /  8km/h 50% 0.00in /  0mm 42 W/m2
13:30 48.0 °F /  8.9 °C 30.2 °F /  -1 °C 30.08in /  1018.5hPa SSW 2.0mph /  3.2km/h 4.0mph /  6.4km/h 50% 0.00in /  0mm 51 W/m2
13:35 48.1 °F /  8.9 °C 30.3 °F /  -0.9 °C 30.08in /  1018.5hPa SW 2.0mph /  3.2km/h 4.0mph /  6.4km/h 50% 0.00in /  0mm 39 W/m2
13:42 48.3 °F /  9.1 °C 30.0 °F /  -1.1 °C 30.08in /  1018.5hPa SW 3.0mph /  4.8km/h 3.0mph /  4.8km/h 49% 0.00in /  0mm 35 W/m2
13:48 48.5 °F /  9.2 °C 30.2 °F /  -1 °C 30.08in /  1018.5hPa SW 4.0mph /  6.4km/h 6.0mph /  9.7km/h 49% 0.00in /  0mm 42 W/m2
13:53 48.6 °F /  9.2 °C 30.3 °F /  -0.9 °C 30.08in /  1018.5hPa SSE 4.0mph /  6.4km/h 4.0mph /  6.4km/h 49% 0.00in /  0mm 40 W/m2
13:59 48.6 °F /  9.2 °C 30.3 °F /  -0.9 °C 30.07in /  1018.2hPa SSW 3.0mph /  4.8km/h 7.0mph /  11.3km/h 49% 0.00in /  0mm 49 W/m2
14:05 48.9 °F /  9.4 °C 30.6 °F /  -0.8 °C 30.08in /  1018.5hPa South 4.0mph /  6.4km/h 7.0mph /  11.3km/h 49% 0.00in /  0mm 46 W/m2
14:12 49.2 °F /  9.6 °C 31.3 °F /  -0.4 °C 30.07in /  1018.2hPa SSW 4.0mph /  6.4km/h 4.0mph /  6.4km/h 50% 0.00in /  0mm 46 W/m2
14:18 49.2 °F /  9.6 °C 31.3 °F /  -0.4 °C 30.07in /  1018.2hPa SW 3.0mph /  4.8km/h 5.0mph /  8km/h 50% 0.00in /  0mm 42 W/m2
14:23 49.4 °F /  9.7 °C 31.5 °F /  -0.3 °C 30.07in /  1018.2hPa SSW 3.0mph /  4.8km/h 3.0mph /  4.8km/h 50% 0.00in /  0mm 40 W/m2
14:29 49.6 °F /  9.8 °C 31.7 °F /  -0.2 °C 30.07in /  1018.2hPa South 4.0mph /  6.4km/h 4.0mph /  6.4km/h 50% 0.00in /  0mm 40 W/m2
14:35 49.8 °F /  9.9 °C 31.9 °F /  -0.1 °C 30.06in /  1017.8hPa SSW 4.0mph /  6.4km/h 5.0mph /  8km/h 50% 0.00in /  0mm 60 W/m2
14:42 49.8 °F /  9.9 °C 31.9 °F /  -0.1 °C 30.07in /  1018.2hPa South 4.0mph /  6.4km/h 4.0mph /  6.4km/h 50% 0.00in /  0mm 47 W/m2
14:48 49.9 °F /  9.9 °C 32.0 °F /  0 °C 30.07in /  1018.2hPa SSE 4.0mph /  6.4km/h 6.0mph /  9.7km/h 50% 0.00in /  0mm 49 W/m2
14:53 50.0 °F /  10 °C 32.1 °F /  0.1 °C 30.06in /  1017.8hPa SW 5.0mph /  8km/h 8.0mph /  12.9km/h 50% 0.00in /  0mm 42 W/m2
14:59 50.1 °F /  10.1 °C 32.2 °F /  0.1 °C 30.06in /  1017.8hPa SSW 5.0mph /  8km/h 5.0mph /  8km/h 50% 0.00in /  0mm 40 W/m2
15:05 50.2 °F /  10.1 °C 32.3 °F /  0.2 °C 30.05in /  1017.5hPa SSE 5.0mph /  8km/h 8.0mph /  12.9km/h 50% 0.00in /  0mm 54 W/m2
15:12 50.3 °F /  10.2 °C 32.4 °F /  0.2 °C 30.06in /  1017.8hPa SSW 5.0mph /  8km/h 5.0mph /  8km/h 50% 0.00in /  0mm 33 W/m2
15:18 50.2 °F /  10.1 °C 32.3 °F /  0.2 °C 30.06in /  1017.8hPa SW 3.0mph /  4.8km/h 5.0mph /  8km/h 50% 0.00in /  0mm 11 W/m2
15:23 50.2 °F /  10.1 °C 32.3 °F /  0.2 °C 30.06in /  1017.8hPa SSW 4.0mph /  6.4km/h 4.0mph /  6.4km/h 50% 0.00in /  0mm 11 W/m2
15:30 50.3 °F /  10.2 °C 32.4 °F /  0.2 °C 30.05in /  1017.5hPa SSW 4.0mph /  6.4km/h 4.0mph /  6.4km/h 50% 0.00in /  0mm 12 W/m2
15:35 50.1 °F /  10.1 °C 32.7 °F /  0.4 °C 30.05in /  1017.5hPa SSW 3.0mph /  4.8km/h 5.0mph /  8km/h 51% 0.00in /  0mm 9 W/m2
15:42 50.1 °F /  10.1 °C 32.7 °F /  0.4 °C 30.05in /  1017.5hPa SSW 4.0mph /  6.4km/h 4.0mph /  6.4km/h 51% 0.00in /  0mm 9 W/m2
15:48 50.0 °F /  10 °C 32.6 °F /  0.3 °C 30.05in /  1017.5hPa SW 4.0mph /  6.4km/h 4.0mph /  6.4km/h 51% 0.00in /  0mm 9 W/m2
15:53 49.9 °F /  9.9 °C 32.5 °F /  0.3 °C 30.05in /  1017.5hPa South 3.0mph /  4.8km/h 4.0mph /  6.4km/h 51% 0.00in /  0mm 7 W/m2
16:00 49.8 °F /  9.9 °C 32.9 °F /  0.5 °C 30.05in /  1017.5hPa South 3.0mph /  4.8km/h 3.0mph /  4.8km/h 52% 0.00in /  0mm 7 W/m2
16:05 49.6 °F /  9.8 °C 33.2 °F /  0.7 °C 30.05in /  1017.5hPa South 2.0mph /  3.2km/h 4.0mph /  6.4km/h 53% 0.00in /  0mm 9 W/m2
16:12 49.5 °F /  9.7 °C 33.5 °F /  0.8 °C 30.05in /  1017.5hPa SSW 3.0mph /  4.8km/h 3.0mph /  4.8km/h 54% 0.00in /  0mm 7 W/m2
16:18 49.4 °F /  9.7 °C 33.9 °F /  1.1 °C 30.05in /  1017.5hPa SSW 3.0mph /  4.8km/h 3.0mph /  4.8km/h 55% 0.00in /  0mm 9 W/m2
16:23 49.0 °F /  9.4 °C 34.0 °F /  1.1 °C 30.05in /  1017.5hPa SW 2.0mph /  3.2km/h 3.0mph /  4.8km/h 56% 0.00in /  0mm 0 W/m2
16:30 49.0 °F /  9.4 °C 34.0 °F /  1.1 °C 30.05in /  1017.5hPa South 3.0mph /  4.8km/h 3.0mph /  4.8km/h 56% 0.00in /  0mm 0 W/m2
16:35 48.9 °F /  9.4 °C 34.3 °F /  1.3 °C 30.05in /  1017.5hPa South 3.0mph /  4.8km/h 4.0mph /  6.4km/h 57% 0.00in /  0mm 0 W/m2
16:42 48.8 °F /  9.3 °C 34.7 °F /  1.5 °C 30.05in /  1017.5hPa SW 3.0mph /  4.8km/h 4.0mph /  6.4km/h 58% 0.00in /  0mm 0 W/m2
16:48 48.7 °F /  9.3 °C 35.0 °F /  1.7 °C 30.06in /  1017.8hPa SW 3.0mph /  4.8km/h 6.0mph /  9.7km/h 59% 0.00in /  0mm 0 W/m2
16:53 48.4 °F /  9.1 °C 35.6 °F /  2 °C 30.06in /  1017.8hPa SW 2.0mph /  3.2km/h 3.0mph /  4.8km/h 61% 0.00in /  0mm 0 W/m2
17:00 47.8 °F /  8.8 °C 36.2 °F /  2.3 °C 30.06in /  1017.8hPa SW 2.0mph /  3.2km/h 2.0mph /  3.2km/h 64% 0.00in /  0mm 0 W/m2
17:06 47.3 °F /  8.5 °C 36.5 °F /  2.5 °C 30.07in /  1018.2hPa WSW 2.0mph /  3.2km/h 5.0mph /  8km/h 66% 0.07in /  1.78mm 0 W/m2
17:12 46.8 °F /  8.2 °C 36.8 °F /  2.7 °C 30.07in /  1018.2hPa SW 3.0mph /  4.8km/h 3.0mph /  4.8km/h 68% 0.07in /  1.78mm 0 W/m2
17:18 46.5 °F /  8.1 °C 36.9 °F /  2.7 °C 30.07in /  1018.2hPa SW 3.0mph /  4.8km/h 4.0mph /  6.4km/h 69% 0.04in /  1.02mm 0 W/m2
17:23 46.1 °F /  7.8 °C 36.9 °F /  2.7 °C 30.07in /  1018.2hPa SSW 2.0mph /  3.2km/h 3.0mph /  4.8km/h 70% 0.04in /  1.02mm 0 W/m2
17:29 45.6 °F /  7.6 °C 37.1 °F /  2.8 °C 30.07in /  1018.2hPa SSW 2.0mph /  3.2km/h 2.0mph /  3.2km/h 72% 0.04in /  1.02mm 0 W/m2
17:35 44.9 °F /  7.2 °C 36.8 °F /  2.7 °C 30.07in /  1018.2hPa SSW 1.0mph /  1.6km/h 2.0mph /  3.2km/h 73% 0.05in /  1.27mm 0 W/m2
17:42 44.2 °F /  6.8 °C 37.1 °F /  2.8 °C 30.07in /  1018.2hPa SSW 1.0mph /  1.6km/h 2.0mph /  3.2km/h 76% 0.05in /  1.27mm 0 W/m2
17:48 44.0 °F /  6.7 °C 37.6 °F /  3.1 °C 30.07in /  1018.2hPa SSW 2.0mph /  3.2km/h 3.0mph /  4.8km/h 78% 0.04in /  1.02mm 0 W/m2
17:53 43.8 °F /  6.6 °C 37.7 °F /  3.2 °C 30.07in /  1018.2hPa SSW 2.0mph /  3.2km/h 3.0mph /  4.8km/h 79% 0.04in /  1.02mm 0 W/m2
18:00 43.5 °F /  6.4 °C 37.7 °F /  3.2 °C 30.07in /  1018.2hPa SSW 2.0mph /  3.2km/h 2.0mph /  3.2km/h 80% 0.07in /  1.78mm 0 W/m2
18:05 43.4 °F /  6.3 °C 38.0 °F /  3.3 °C 30.08in /  1018.5hPa SW 2.0mph /  3.2km/h 5.0mph /  8km/h 81% 0.07in /  1.78mm 0 W/m2
18:12 43.1 °F /  6.2 °C 38.0 °F /  3.3 °C 30.07in /  1018.2hPa SW 2.0mph /  3.2km/h 3.0mph /  4.8km/h 82% 0.12in /  3.05mm 0 W/m2
18:18 43.0 °F /  6.1 °C 37.9 °F /  3.3 °C 30.08in /  1018.5hPa SW 2.0mph /  3.2km/h 3.0mph /  4.8km/h 82% 0.08in /  2.03mm 0 W/m2
18:23 42.9 °F /  6.1 °C 38.1 °F /  3.4 °C 30.08in /  1018.5hPa South 3.0mph /  4.8km/h 5.0mph /  8km/h 83% 0.06in /  1.52mm 0 W/m2
18:30 43.0 °F /  6.1 °C 38.2 °F /  3.4 °C 30.08in /  1018.5hPa South 4.0mph /  6.4km/h 4.0mph /  6.4km/h 83% 0.06in /  1.52mm 0 W/m2
18:35 42.9 °F /  6.1 °C 38.1 °F /  3.4 °C 30.08in /  1018.5hPa WSW 4.0mph /  6.4km/h 4.0mph /  6.4km/h 83% 0.06in /  1.52mm 0 W/m2
18:42 43.0 °F /  6.1 °C 38.2 °F /  3.4 °C 30.08in /  1018.5hPa SW 3.0mph /  4.8km/h 4.0mph /  6.4km/h 83% 0.05in /  1.27mm 0 W/m2
18:48 42.9 °F /  6.1 °C 38.1 °F /  3.4 °C 30.08in /  1018.5hPa SSW 3.0mph /  4.8km/h 7.0mph /  11.3km/h 83% 0.05in /  1.27mm 0 W/m2
18:53 42.8 °F /  6 °C 38.0 °F /  3.3 °C 30.08in /  1018.5hPa SW 3.0mph /  4.8km/h 3.0mph /  4.8km/h 83% 0.08in /  2.03mm 0 W/m2
19:00 42.7 °F /  5.9 °C 38.2 °F /  3.4 °C 30.08in /  1018.5hPa South 3.0mph /  4.8km/h 3.0mph /  4.8km/h 84% 0.06in /  1.52mm 0 W/m2
19:05 42.6 °F /  5.9 °C 38.1 °F /  3.4 °C 30.08in /  1018.5hPa SSW 2.0mph /  3.2km/h 3.0mph /  4.8km/h 84% 0.05in /  1.27mm 0 W/m2
19:12 42.5 °F /  5.8 °C 38.0 °F /  3.3 °C 30.09in /  1018.8hPa SW 2.0mph /  3.2km/h 3.0mph /  4.8km/h 84% 0.05in /  1.27mm 0 W/m2
19:20 42.3 °F /  5.7 °C 38.1 °F /  3.4 °C 30.09in /  1018.8hPa SSW 1.0mph /  1.6km/h 2.0mph /  3.2km/h 85% 0.05in /  1.27mm 0 W/m2
19:25 42.2 °F /  5.7 °C 38.0 °F /  3.3 °C 30.09in /  1018.8hPa South 1.0mph /  1.6km/h 3.0mph /  4.8km/h 85% 0.05in /  1.27mm 0 W/m2
19:32 42.0 °F /  5.6 °C 38.1 °F /  3.4 °C 30.09in /  1018.8hPa South 3.0mph /  4.8km/h 3.0mph /  4.8km/h 86% 0.00in /  0mm 0 W/m2
19:38 42.0 °F /  5.6 °C 38.1 °F /  3.4 °C 30.09in /  1018.8hPa South 2.0mph /  3.2km/h 4.0mph /  6.4km/h 86% 0.00in /  0mm 0 W/m2
19:43 42.0 °F /  5.6 °C 38.1 °F /  3.4 °C 30.09in /  1018.8hPa South 3.0mph /  4.8km/h 4.0mph /  6.4km/h 86% 0.00in /  0mm 0 W/m2
19:49 42.0 °F /  5.6 °C 38.1 °F /  3.4 °C 30.09in /  1018.8hPa SSW 3.0mph /  4.8km/h 3.0mph /  4.8km/h 86% 0.07in /  1.78mm 0 W/m2
19:56 42.0 °F /  5.6 °C 38.4 °F /  3.6 °C 30.09in /  1018.8hPa SSW 3.0mph /  4.8km/h 6.0mph /  9.7km/h 87% 0.05in /  1.27mm 0 W/m2
20:02 42.0 °F /  5.6 °C 38.4 °F /  3.6 °C 30.09in /  1018.8hPa South 3.0mph /  4.8km/h 3.0mph /  4.8km/h 87% 0.05in /  1.27mm 0 W/m2
20:08 42.1 °F /  5.6 °C 38.5 °F /  3.6 °C 30.09in /  1018.8hPa South 3.0mph /  4.8km/h 5.0mph /  8km/h 87% 0.06in /  1.52mm 0 W/m2
20:13 42.1 °F /  5.6 °C 38.8 °F /  3.8 °C 30.10in /  1019.2hPa SSW 3.0mph /  4.8km/h 6.0mph /  9.7km/h 88% 0.06in /  1.52mm 0 W/m2
20:19 42.1 °F /  5.6 °C 38.8 °F /  3.8 °C 30.09in /  1018.8hPa South 3.0mph /  4.8km/h 3.0mph /  4.8km/h 88% 0.04in /  1.02mm 0 W/m2
20:25 42.2 °F /  5.7 °C 38.9 °F /  3.8 °C 30.09in /  1018.8hPa SSW 3.0mph /  4.8km/h 4.0mph /  6.4km/h 88% 0.00in /  0mm 0 W/m2
20:32 42.3 °F /  5.7 °C 39.0 °F /  3.9 °C 30.09in /  1018.8hPa South 3.0mph /  4.8km/h 3.0mph /  4.8km/h 88% 0.00in /  0mm 0 W/m2
20:38 42.4 °F /  5.8 °C 39.1 °F /  3.9 °C 30.09in /  1018.8hPa South 3.0mph /  4.8km/h 4.0mph /  6.4km/h 88% 0.00in /  0mm 0 W/m2
20:44 42.4 °F /  5.8 °C 39.1 °F /  3.9 °C 30.10in /  1019.2hPa South 3.0mph /  4.8km/h 5.0mph /  8km/h 88% 0.00in /  0mm 0 W/m2
20:50 42.3 °F /  5.7 °C 39.3 °F /  4.1 °C 30.10in /  1019.2hPa SSW 2.0mph /  3.2km/h 2.0mph /  3.2km/h 89% 0.00in /  0mm 0 W/m2
20:55 42.4 °F /  5.8 °C 39.4 °F /  4.1 °C 30.10in /  1019.2hPa SSW 2.0mph /  3.2km/h 2.0mph /  3.2km/h 89% 0.00in /  0mm 0 W/m2
21:02 42.3 °F /  5.7 °C 39.3 °F /  4.1 °C 30.10in /  1019.2hPa SSW 2.0mph /  3.2km/h 2.0mph /  3.2km/h 89% 0.05in /  1.27mm 0 W/m2
21:08 42.3 °F /  5.7 °C 39.3 °F /  4.1 °C 30.10in /  1019.2hPa SSW 2.0mph /  3.2km/h 4.0mph /  6.4km/h 89% 0.05in /  1.27mm 0 W/m2
21:13 42.4 °F /  5.8 °C 39.4 °F /  4.1 °C 30.10in /  1019.2hPa SSW 2.0mph /  3.2km/h 2.0mph /  3.2km/h 89% 0.04in /  1.02mm 0 W/m2
21:19 42.5 °F /  5.8 °C 39.8 °F /  4.3 °C 30.10in /  1019.2hPa SW 1.0mph /  1.6km/h 2.0mph /  3.2km/h 90% 0.00in /  0mm 0 W/m2
21:25 42.6 °F /  5.9 °C 39.9 °F /  4.4 °C 30.11in /  1019.5hPa SW 2.0mph /  3.2km/h 7.0mph /  11.3km/h 90% 0.00in /  0mm 0 W/m2
21:32 42.7 °F /  5.9 °C 40.0 °F /  4.4 °C 30.10in /  1019.2hPa SSW 3.0mph /  4.8km/h 4.0mph /  6.4km/h 90% 0.00in /  0mm 0 W/m2
21:38 42.6 °F /  5.9 °C 39.9 °F /  4.4 °C 30.10in /  1019.2hPa SSE 3.0mph /  4.8km/h 5.0mph /  8km/h 90% 0.00in /  0mm 0 W/m2
21:44 42.6 °F /  5.9 °C 39.9 °F /  4.4 °C 30.10in /  1019.2hPa SSE 3.0mph /  4.8km/h 5.0mph /  8km/h 90% 0.00in /  0mm 0 W/m2
21:49 42.8 °F /  6 °C 40.1 °F /  4.5 °C 30.10in /  1019.2hPa SW 3.0mph /  4.8km/h 4.0mph /  6.4km/h 90% 0.00in /  0mm 0 W/m2
21:55 43.1 °F /  6.2 °C 40.4 °F /  4.7 °C 30.10in /  1019.2hPa South 3.0mph /  4.8km/h 7.0mph /  11.3km/h 90% 0.00in /  0mm 0 W/m2
22:02 43.3 °F /  6.3 °C 40.6 °F /  4.8 °C 30.10in /  1019.2hPa SW 2.0mph /  3.2km/h 3.0mph /  4.8km/h 90% 0.00in /  0mm 0 W/m2
22:08 43.4 °F /  6.3 °C 40.7 °F /  4.8 °C 30.09in /  1018.8hPa SSW 2.0mph /  3.2km/h 3.0mph /  4.8km/h 90% 0.00in /  0mm 0 W/m2
22:13 43.6 °F /  6.4 °C 40.9 °F /  4.9 °C 30.09in /  1018.8hPa SW 2.0mph /  3.2km/h 3.0mph /  4.8km/h 90% 0.00in /  0mm 0 W/m2
22:19 43.7 °F /  6.5 °C 41.0 °F /  5 °C 30.09in /  1018.8hPa SSW 3.0mph /  4.8km/h 3.0mph /  4.8km/h 90% 0.00in /  0mm 0 W/m2
22:25 43.9 °F /  6.6 °C 41.2 °F /  5.1 °C 30.09in /  1018.8hPa South 3.0mph /  4.8km/h 5.0mph /  8km/h 90% 0.00in /  0mm 0 W/m2
22:32 43.9 °F /  6.6 °C 41.2 °F /  5.1 °C 30.10in /  1019.2hPa SW 3.0mph /  4.8km/h 3.0mph /  4.8km/h 90% 0.00in /  0mm 0 W/m2
22:38 44.0 °F /  6.7 °C 41.0 °F /  5 °C 30.09in /  1018.8hPa SW 3.0mph /  4.8km/h 5.0mph /  8km/h 89% 0.00in /  0mm 0 W/m2
22:43 44.1 °F /  6.7 °C 41.1 °F /  5.1 °C 30.10in /  1019.2hPa SW 4.0mph /  6.4km/h 4.0mph /  6.4km/h 89% 0.00in /  0mm 0 W/m2
22:50 44.1 °F /  6.7 °C 41.1 °F /  5.1 °C 30.10in /  1019.2hPa SW 3.0mph /  4.8km/h 3.0mph /  4.8km/h 89% 0.00in /  0mm 0 W/m2
22:55 44.0 °F /  6.7 °C 41.0 °F /  5 °C 30.10in /  1019.2hPa SSW 2.0mph /  3.2km/h 3.0mph /  4.8km/h 89% 0.00in /  0mm 0 W/m2
23:02 44.0 °F /  6.7 °C 40.7 °F /  4.8 °C 30.09in /  1018.8hPa SW 2.0mph /  3.2km/h 3.0mph /  4.8km/h 88% 0.00in /  0mm 0 W/m2
23:08 44.1 °F /  6.7 °C 40.8 °F /  4.9 °C 30.09in /  1018.8hPa WSW 3.0mph /  4.8km/h 3.0mph /  4.8km/h 88% 0.00in /  0mm 0 W/m2
23:13 44.1 °F /  6.7 °C 40.8 °F /  4.9 °C 30.09in /  1018.8hPa SW 3.0mph /  4.8km/h 4.0mph /  6.4km/h 88% 0.00in /  0mm 0 W/m2
23:19 44.1 °F /  6.7 °C 40.8 °F /  4.9 °C 30.10in /  1019.2hPa SW 2.0mph /  3.2km/h 5.0mph /  8km/h 88% 0.00in /  0mm 0 W/m2
23:26 44.0 °F /  6.7 °C 40.7 °F /  4.8 °C 30.10in /  1019.2hPa WSW 2.0mph /  3.2km/h 5.0mph /  8km/h 88% 0.00in /  0mm 0 W/m2
23:32 43.9 °F /  6.6 °C 40.6 °F /  4.8 °C 30.10in /  1019.2hPa WSW 2.0mph /  3.2km/h 4.0mph /  6.4km/h 88% 0.00in /  0mm 0 W/m2
23:38 44.0 °F /  6.7 °C 40.4 °F /  4.7 °C 30.11in /  1019.5hPa SSW 2.0mph /  3.2km/h 4.0mph /  6.4km/h 87% 0.00in /  0mm 0 W/m2
23:43 44.0 °F /  6.7 °C 40.7 °F /  4.8 °C 30.11in /  1019.5hPa SW 2.0mph /  3.2km/h 4.0mph /  6.4km/h 88% 0.00in /  0mm 0 W/m2
23:49 44.2 °F /  6.8 °C 40.6 °F /  4.8 °C 30.11in /  1019.5hPa SW 3.0mph /  4.8km/h 4.0mph /  6.4km/h 87% 0.00in /  0mm 0 W/m2
23:56 44.2 °F /  6.8 °C 40.6 °F /  4.8 °C 30.11in /  1019.5hPa WSW 3.0mph /  4.8km/h 4.0mph /  6.4km/h 87% 0.00in /  0mm 0 W/m2
Country Meadow, Clay, NY, USA
Compliments of Weather Underground - 2 mb